aviador You're here:

YAYE Decoded Metar

AYERS ROCK in _UNIDENTIFIED
Report Time2018-06-24 00:00:00
UTC Time2018-06-24 00:59:46
Flight Rules vfr VFR
Wind110° at 09 kt
W.Decomp.*RWY 13: 8.2 kt HW 3.7 kt LCW
W.Rank110° ranks 1
Current wind is above 110° avg. (8.2)
Visibility9999 m
Phenomena:N/A
Clouds:N/A
Expected CloudBase > 4,800 ft AGL from Temp-Dew spread
CeilingNone
Temp11°C (ISA -1)
Dew Point-1°C (44% RH)
AAT5.7°C
QNH1028 hPa
Density Alt1,115 ft
Elevation1,627 ft
Report Wrong Elevation
Raw Report
YAYE 240000Z AUTO 11009KT 9999 // NCD 11/M01 Q1028=

Extra information for YAYE:More info

Metar Taf Metar & Taf Last 4 Metars F.Rules Stats Wind Profile Meteogram Temp Stats Airport Information Weather charts Add Link Nearby VenuesMetar ALERT Operation Metar Decoded Social comments